createdAt,value
2022-12-14T00:01:21.675Z,-2.80
2022-12-14T00:03:48.849Z,-2.80
2022-12-14T00:06:22.415Z,-2.90
2022-12-14T00:08:52.518Z,-2.80
2022-12-14T00:11:25.271Z,-2.80
2022-12-14T00:13:55.147Z,-2.70
2022-12-14T00:16:22.399Z,-2.70
2022-12-14T00:18:52.457Z,-2.70
2022-12-14T00:21:19.554Z,-2.60
2022-12-14T00:23:46.712Z,-2.60
2022-12-14T00:26:18.831Z,-2.60
2022-12-14T00:28:45.934Z,-2.60
2022-12-14T00:31:15.299Z,-2.60
2022-12-14T00:33:44.299Z,-2.60
2022-12-14T00:36:14.665Z,-2.60
2022-12-14T00:38:41.492Z,-2.70
2022-12-14T00:41:08.360Z,-2.80
2022-12-14T00:43:39.615Z,-2.80
2022-12-14T00:46:06.316Z,-2.80
2022-12-14T00:48:33.288Z,-2.80
2022-12-14T00:51:02.380Z,-2.90
2022-12-14T00:53:31.214Z,-2.90
2022-12-14T00:56:04.210Z,-3.00
2022-12-14T00:58:30.994Z,-2.90
2022-12-14T01:00:58.833Z,-2.90
2022-12-14T01:03:25.903Z,-2.90
2022-12-14T01:05:52.636Z,-2.80
2022-12-14T01:08:20.334Z,-2.80
2022-12-14T01:10:46.883Z,-2.70
2022-12-14T01:13:13.448Z,-2.80
2022-12-14T01:15:42.342Z,-2.90
2022-12-14T01:18:09.009Z,-3.00
2022-12-14T01:20:37.777Z,-3.00
2022-12-14T01:23:04.320Z,-3.10
2022-12-14T01:25:33.347Z,-3.00
2022-12-14T01:27:59.905Z,-3.00
2022-12-14T01:30:26.530Z,-2.90
2022-12-14T01:32:53.270Z,-2.90
2022-12-14T01:35:22.133Z,-2.90
2022-12-14T01:37:50.951Z,-2.90
2022-12-14T01:40:17.868Z,-3.00
2022-12-14T01:42:44.396Z,-3.00
2022-12-14T01:45:23.572Z,-3.10
2022-12-14T01:47:53.119Z,-3.10
2022-12-14T01:50:26.637Z,-3.20
2022-12-14T01:52:56.828Z,-3.20
2022-12-14T01:55:32.808Z,-3.10
2022-12-14T01:58:02.888Z,-3.00
2022-12-14T02:00:29.516Z,-3.00
2022-12-14T02:03:02.442Z,-3.00
2022-12-14T02:05:30.426Z,-2.90
2022-12-14T02:07:59.398Z,-2.90
2022-12-14T02:10:27.228Z,-2.80
2022-12-14T02:12:59.001Z,-2.80
2022-12-14T02:15:25.891Z,-2.60
2022-12-14T02:17:52.452Z,-2.70
2022-12-14T02:20:20.220Z,-2.70
2022-12-14T02:23:09.775Z,-2.70
2022-12-14T02:25:45.172Z,-2.70
2022-12-14T02:28:18.933Z,-2.70
2022-12-14T02:30:51.846Z,-2.80
2022-12-14T02:33:18.474Z,-2.70
2022-12-14T02:35:51.132Z,-2.80
2022-12-14T02:38:25.240Z,-2.80
2022-12-14T02:41:10.738Z,-2.80
2022-12-14T02:43:37.263Z,-2.70
2022-12-14T02:46:16.207Z,-2.60
2022-12-14T02:49:09.355Z,-2.60
2022-12-14T02:51:38.764Z,-2.50
2022-12-14T02:54:16.145Z,-2.50
2022-12-14T02:56:53.807Z,-2.50
2022-12-14T02:59:21.207Z,-2.60
2022-12-14T03:01:50.024Z,-2.60
2022-12-14T03:04:18.733Z,-2.60
2022-12-14T03:06:53.179Z,-2.60
2022-12-14T03:09:19.860Z,-2.60
2022-12-14T03:11:55.310Z,-2.50
2022-12-14T03:14:21.907Z,-2.50
2022-12-14T03:16:52.028Z,-2.50
2022-12-14T03:19:22.771Z,-2.60
2022-12-14T03:21:51.621Z,-2.60
2022-12-14T03:24:21.795Z,-2.60
2022-12-14T03:27:11.032Z,-2.50
2022-12-14T03:29:45.162Z,-2.60
2022-12-14T03:32:13.289Z,-2.60
2022-12-14T03:34:48.967Z,-2.50
2022-12-14T03:37:20.931Z,-2.50
2022-12-14T03:39:47.707Z,-2.50
2022-12-14T03:42:26.567Z,-2.50
2022-12-14T03:45:05.226Z,-2.60
2022-12-14T03:47:38.040Z,-2.80
2022-12-14T03:50:11.351Z,-2.80
2022-12-14T03:52:40.581Z,-2.80
2022-12-14T03:55:39.508Z,-2.80
2022-12-14T03:58:14.295Z,-2.80
2022-12-14T04:00:52.057Z,-2.70
2022-12-14T04:03:26.218Z,-2.60
2022-12-14T04:05:59.581Z,-2.60
2022-12-14T04:08:31.972Z,-2.50
2022-12-14T04:11:18.980Z,-2.50
2022-12-14T04:14:07.218Z,-2.50
2022-12-14T04:16:55.304Z,-2.40
2022-12-14T04:19:28.483Z,-2.40
2022-12-14T04:21:55.023Z,-2.40
2022-12-14T04:24:45.929Z,-2.40
2022-12-14T04:27:20.775Z,-2.30
2022-12-14T04:29:57.413Z,-2.30
2022-12-14T04:32:27.695Z,-2.50
2022-12-14T04:34:56.675Z,-2.50
2022-12-14T04:37:24.600Z,-2.60
2022-12-14T04:39:56.206Z,-2.50
2022-12-14T04:42:26.553Z,-2.50
2022-12-14T04:44:55.219Z,-2.50
2022-12-14T04:47:23.468Z,-2.50
2022-12-14T04:49:59.353Z,-2.40
2022-12-14T04:52:34.931Z,-2.40
2022-12-14T04:55:30.750Z,-2.30
2022-12-14T04:58:23.457Z,-2.30
2022-12-14T05:01:11.470Z,-2.30
2022-12-14T05:03:45.963Z,-2.30
2022-12-14T05:06:12.486Z,-2.30
2022-12-14T05:08:53.999Z,-2.20
2022-12-14T05:14:27.646Z,-2.20
2022-12-14T05:16:54.245Z,-2.20
2022-12-14T05:19:26.150Z,-2.20
2022-12-14T05:21:53.457Z,-2.10
2022-12-14T05:24:19.978Z,-2.10
2022-12-14T05:26:46.652Z,-2.00
2022-12-14T05:29:14.934Z,-2.10
2022-12-14T05:31:41.652Z,-2.10
2022-12-14T05:34:10.679Z,-2.10
2022-12-14T05:36:37.227Z,-2.00
2022-12-14T05:39:03.883Z,-2.00
2022-12-14T05:41:30.435Z,-2.10
2022-12-14T05:43:59.430Z,-2.20
2022-12-14T05:46:26.070Z,-2.30
2022-12-14T05:48:54.909Z,-2.30
2022-12-14T05:51:24.436Z,-2.30
2022-12-14T05:53:51.055Z,-2.20
2022-12-14T05:56:17.578Z,-2.10
2022-12-14T05:58:44.154Z,-2.10
2022-12-14T06:01:18.846Z,-2.10
2022-12-14T06:03:46.125Z,-2.10
2022-12-14T06:06:15.632Z,-2.10
2022-12-14T06:08:43.800Z,-2.00
2022-12-14T06:11:14.500Z,-2.10
2022-12-14T06:13:43.696Z,-2.10
2022-12-14T06:16:16.869Z,-2.10
2022-12-14T06:18:44.484Z,-2.10
2022-12-14T06:21:13.829Z,-2.30
2022-12-14T06:23:40.713Z,-2.30
2022-12-14T06:26:08.502Z,-2.30
2022-12-14T06:28:35.079Z,-2.30
2022-12-14T06:31:06.731Z,-2.40
2022-12-14T06:33:34.964Z,-2.40
2022-12-14T06:36:02.800Z,-2.30
2022-12-14T06:38:31.946Z,-2.30
2022-12-14T06:40:58.541Z,-2.30
2022-12-14T06:43:26.368Z,-2.30
2022-12-14T06:45:53.414Z,-2.30
2022-12-14T06:48:19.994Z,-2.20
2022-12-14T06:50:46.531Z,-2.20
2022-12-14T06:53:13.520Z,-2.30
2022-12-14T06:55:42.582Z,-2.30
2022-12-14T06:58:11.515Z,-2.30
2022-12-14T07:00:38.060Z,-2.30
2022-12-14T07:03:04.680Z,-2.30
2022-12-14T07:05:31.450Z,-2.30
2022-12-14T07:07:58.074Z,-2.20
2022-12-14T07:10:24.647Z,-2.10
2022-12-14T07:12:51.318Z,-2.10
2022-12-14T07:15:17.981Z,-2.10
2022-12-14T07:17:47.369Z,-2.00
2022-12-14T07:20:13.967Z,-2.10
2022-12-14T07:22:40.580Z,-2.20
2022-12-14T07:25:07.312Z,-2.20
2022-12-14T07:27:33.869Z,-2.30
2022-12-14T07:30:00.415Z,-2.30
2022-12-14T07:32:31.583Z,-2.30
2022-12-14T07:35:00.650Z,-2.20
2022-12-14T07:37:29.679Z,-2.10
2022-12-14T07:39:56.252Z,-2.10
2022-12-14T07:42:22.803Z,-2.20
2022-12-14T07:44:49.341Z,-2.20
2022-12-14T07:47:18.319Z,-2.30
2022-12-14T07:49:47.290Z,-2.30
2022-12-14T07:52:14.411Z,-2.20
2022-12-14T07:54:42.086Z,-2.20
2022-12-14T07:57:08.653Z,-2.20
2022-12-14T07:59:37.420Z,-2.20
2022-12-14T08:02:04.065Z,-2.20
2022-12-14T08:04:30.802Z,-2.10
2022-12-14T08:06:59.883Z,-2.20
2022-12-14T08:09:26.408Z,-2.20
2022-12-14T08:11:52.946Z,-2.10
2022-12-14T08:14:19.663Z,-2.20
2022-12-14T08:16:47.180Z,-2.20
2022-12-14T08:19:13.869Z,-2.10
2022-12-14T08:21:42.642Z,-2.20
2022-12-14T08:24:12.891Z,-2.20
2022-12-14T08:26:39.576Z,-2.20
2022-12-14T08:29:06.554Z,-2.10
2022-12-14T08:31:33.511Z,-2.10
2022-12-14T08:34:02.410Z,-2.10
2022-12-14T08:36:35.434Z,-2.10
2022-12-14T08:39:05.379Z,-2.10
2022-12-14T08:41:32.275Z,-2.10
2022-12-14T08:44:01.794Z,-2.10
2022-12-14T08:46:31.968Z,-2.20
2022-12-14T08:48:58.777Z,-2.20
2022-12-14T08:51:26.104Z,-2.20
2022-12-14T08:53:54.826Z,-2.20
2022-12-14T08:56:23.640Z,-2.20
2022-12-14T08:58:50.207Z,-2.20
2022-12-14T09:01:23.747Z,-2.20
2022-12-14T09:03:52.397Z,-2.20
2022-12-14T09:06:22.845Z,-2.20
2022-12-14T09:08:50.086Z,-2.10
2022-12-14T09:11:21.570Z,-2.10
2022-12-14T09:13:48.195Z,-2.10
2022-12-14T09:16:16.338Z,-2.00
2022-12-14T09:18:45.695Z,-1.90
2022-12-14T09:21:12.452Z,-1.90
2022-12-14T09:23:39.551Z,-1.80
2022-12-14T09:26:09.797Z,-1.70
2022-12-14T09:28:40.790Z,-1.70
2022-12-14T09:31:12.281Z,-1.70
2022-12-14T09:33:39.217Z,-1.70
2022-12-14T09:36:10.471Z,-1.70
2022-12-14T09:38:37.889Z,-1.70
2022-12-14T09:41:07.532Z,-1.70
2022-12-14T09:43:38.300Z,-1.70
2022-12-14T09:46:13.481Z,-1.60
2022-12-14T09:48:44.844Z,-1.60
2022-12-14T09:51:13.986Z,-1.50
2022-12-14T09:53:43.605Z,-1.50
2022-12-14T09:56:15.046Z,-1.50
2022-12-14T09:58:44.560Z,-1.40
2022-12-14T10:01:24.446Z,-1.40
2022-12-14T10:04:03.412Z,-1.40
2022-12-14T10:06:30.137Z,-1.30
2022-12-14T10:08:56.751Z,-1.30
2022-12-14T10:11:23.274Z,-1.30
2022-12-14T10:13:52.686Z,-1.20
2022-12-14T10:16:19.356Z,-1.20
2022-12-14T10:19:00.223Z,-1.20
2022-12-14T10:21:32.981Z,-1.10
2022-12-14T10:24:02.487Z,-1.00
2022-12-14T10:26:44.591Z,-0.90
2022-12-14T10:29:30.387Z,-0.90
2022-12-14T10:32:15.824Z,-0.90
2022-12-14T10:34:43.704Z,-0.80
2022-12-14T10:37:27.319Z,-0.80
2022-12-14T10:40:13.735Z,-0.80
2022-12-14T10:42:49.429Z,-0.80
2022-12-14T10:45:43.085Z,-0.90
2022-12-14T10:48:28.928Z,-0.80
2022-12-14T10:50:58.594Z,-0.70
2022-12-14T10:53:40.213Z,-0.60
2022-12-14T10:56:11.139Z,-0.50
2022-12-14T10:58:37.719Z,-0.40
2022-12-14T11:01:04.375Z,-0.30
2022-12-14T11:03:31.155Z,-0.30
2022-12-14T11:06:00.318Z,-0.20
2022-12-14T11:08:44.322Z,-0.10
2022-12-14T11:11:18.821Z,-0.20
2022-12-14T11:13:53.610Z,-0.10
2022-12-14T11:16:27.763Z,0.00
2022-12-14T11:19:00.175Z,0.00
2022-12-14T11:21:37.607Z,0.10
2022-12-14T11:24:04.848Z,0.20
2022-12-14T11:26:31.354Z,0.20
2022-12-14T11:28:58.574Z,0.30
2022-12-14T11:31:31.522Z,0.40
2022-12-14T11:33:58.769Z,0.40
2022-12-14T11:36:41.554Z,0.40
2022-12-14T11:39:16.695Z,0.40
2022-12-14T11:41:44.474Z,0.40
2022-12-14T11:44:13.858Z,0.40
2022-12-14T11:47:00.684Z,0.50
2022-12-14T11:49:35.816Z,0.60
2022-12-14T11:52:02.379Z,0.80
2022-12-14T11:54:29.181Z,0.80
2022-12-14T11:57:18.553Z,0.80
2022-12-14T11:59:51.303Z,0.80
2022-12-14T12:02:36.629Z,0.80
2022-12-14T12:05:14.923Z,0.80
2022-12-14T12:08:02.328Z,0.80
2022-12-14T12:10:42.006Z,0.80
2022-12-14T12:13:23.666Z,0.80
2022-12-14T12:15:51.802Z,0.70
2022-12-14T12:18:24.346Z,0.80
2022-12-14T12:20:56.488Z,0.80
2022-12-14T12:23:27.754Z,0.70
2022-12-14T12:25:56.106Z,0.80
2022-12-14T12:28:22.939Z,0.80
2022-12-14T12:30:51.260Z,0.90
2022-12-14T12:33:26.253Z,1.00
2022-12-14T12:35:54.256Z,1.10
2022-12-14T12:38:25.976Z,1.10
2022-12-14T12:41:02.958Z,1.10
2022-12-14T12:43:38.742Z,1.20
2022-12-14T12:46:13.617Z,1.30
2022-12-14T12:48:40.175Z,1.20
2022-12-14T12:51:15.324Z,1.30
2022-12-14T12:53:44.353Z,1.30
2022-12-14T12:56:13.120Z,1.40
2022-12-14T12:58:40.775Z,1.40
2022-12-14T13:03:37.427Z,1.60
2022-12-14T13:06:15.905Z,1.50
2022-12-14T13:08:46.014Z,1.50
2022-12-14T13:11:28.819Z,1.40
2022-12-14T13:13:57.947Z,1.40
2022-12-14T13:16:36.730Z,1.40
2022-12-14T13:19:49.685Z,1.40
2022-12-14T13:22:16.779Z,1.30
2022-12-14T13:24:47.908Z,1.30
2022-12-14T13:27:25.437Z,1.30
2022-12-14T13:29:52.056Z,1.30
2022-12-14T13:32:35.435Z,1.20
2022-12-14T13:35:06.806Z,1.30
2022-12-14T13:37:54.009Z,1.30
2022-12-14T13:40:26.596Z,1.30
2022-12-14T13:43:05.765Z,1.30
2022-12-14T13:45:37.789Z,1.40
2022-12-14T13:48:07.984Z,1.40
2022-12-14T13:50:43.360Z,1.40
2022-12-14T13:53:34.832Z,1.50
2022-12-14T13:56:02.178Z,1.40
2022-12-14T13:58:41.887Z,1.40
2022-12-14T14:01:08.511Z,1.50
2022-12-14T14:03:35.367Z,1.50
2022-12-14T14:06:14.712Z,1.50
2022-12-14T14:08:44.644Z,1.50
2022-12-14T14:11:39.982Z,1.50
2022-12-14T14:14:06.659Z,1.50
2022-12-14T14:16:38.997Z,1.50
2022-12-14T14:19:08.641Z,1.50
2022-12-14T14:22:05.945Z,1.50
2022-12-14T14:24:50.562Z,1.50
2022-12-14T14:27:19.352Z,1.40
2022-12-14T14:29:49.369Z,1.40
2022-12-14T14:32:34.335Z,1.40
2022-12-14T14:35:04.154Z,1.50
2022-12-14T14:37:32.598Z,1.50
2022-12-14T14:40:26.356Z,1.40
2022-12-14T14:43:17.765Z,1.40
2022-12-14T14:45:52.434Z,1.40
2022-12-14T14:48:22.707Z,1.30
2022-12-14T14:50:56.494Z,1.30
2022-12-14T14:53:31.393Z,1.20
2022-12-14T14:56:04.575Z,1.10
2022-12-14T14:58:38.529Z,1.10
2022-12-14T15:01:20.745Z,1.00
2022-12-14T15:03:58.897Z,0.90
2022-12-14T15:06:29.876Z,0.90
2022-12-14T15:09:12.128Z,0.90
2022-12-14T15:11:44.700Z,0.90
2022-12-14T15:14:16.307Z,0.80
2022-12-14T15:16:46.651Z,0.80
2022-12-14T15:19:17.144Z,0.80
2022-12-14T15:21:43.743Z,0.80
2022-12-14T15:24:12.899Z,0.80
2022-12-14T15:26:39.497Z,0.80
2022-12-14T15:29:06.215Z,0.80
2022-12-14T15:31:34.700Z,0.70
2022-12-14T15:34:01.865Z,0.70
2022-12-14T15:36:30.561Z,0.70
2022-12-14T15:38:57.560Z,0.70
2022-12-14T15:41:25.646Z,0.70
2022-12-14T15:43:55.083Z,0.70
2022-12-14T15:46:27.127Z,0.60
2022-12-14T15:49:00.206Z,0.60
2022-12-14T15:51:35.042Z,0.60
2022-12-14T15:54:02.599Z,0.60
2022-12-14T15:56:41.801Z,0.60
2022-12-14T15:59:22.088Z,0.60
2022-12-14T16:01:58.928Z,0.60
2022-12-14T16:04:32.346Z,0.50
2022-12-14T16:07:14.290Z,0.50
2022-12-14T16:09:45.179Z,0.50
2022-12-14T16:12:21.677Z,0.50
2022-12-14T16:14:50.661Z,0.40
2022-12-14T16:17:20.199Z,0.40
2022-12-14T16:20:13.845Z,0.40
2022-12-14T16:22:43.033Z,0.40
2022-12-14T16:25:12.009Z,0.30
2022-12-14T16:27:40.418Z,0.20
2022-12-14T16:30:17.482Z,0.20
2022-12-14T16:32:50.473Z,0.20
2022-12-14T16:35:22.215Z,0.10
2022-12-14T16:37:57.924Z,0.10
2022-12-14T16:40:30.074Z,0.10
2022-12-14T16:42:56.640Z,0.10
2022-12-14T16:45:48.196Z,0.10
2022-12-14T16:48:22.135Z,0.10
2022-12-14T16:50:57.384Z,0.00
2022-12-14T16:53:27.537Z,0.00
2022-12-14T16:56:03.698Z,-0.10
2022-12-14T16:58:30.634Z,-0.10
2022-12-14T17:01:05.948Z,-0.10
2022-12-14T17:03:33.756Z,-0.10
2022-12-14T17:06:02.677Z,-0.10
2022-12-14T17:08:35.261Z,-0.10
2022-12-14T17:11:02.226Z,-0.20
2022-12-14T17:13:29.267Z,-0.20
2022-12-14T17:16:02.675Z,-0.20
2022-12-14T17:18:34.684Z,-0.20
2022-12-14T17:21:01.653Z,-0.20
2022-12-14T17:23:31.001Z,-0.30
2022-12-14T17:25:58.453Z,-0.30
2022-12-14T17:28:27.127Z,-0.30
2022-12-14T17:30:57.287Z,-0.40
2022-12-14T17:33:27.852Z,-0.40
2022-12-14T17:35:55.283Z,-0.50
2022-12-14T17:38:22.457Z,-0.40
2022-12-14T17:40:49.612Z,-0.50
2022-12-14T17:43:18.612Z,-0.50
2022-12-14T17:45:45.202Z,-0.50
2022-12-14T17:48:15.647Z,-0.60
2022-12-14T17:50:44.410Z,-0.60
2022-12-14T17:53:14.733Z,-0.60
2022-12-14T17:55:41.476Z,-0.60
2022-12-14T17:58:09.629Z,-0.60
2022-12-14T18:00:54.942Z,-0.70
2022-12-14T18:03:21.789Z,-0.60
2022-12-14T18:05:53.483Z,-0.70
2022-12-14T18:08:20.997Z,-0.70
2022-12-14T18:10:51.884Z,-0.70
2022-12-14T18:13:18.445Z,-0.80
2022-12-14T18:15:49.838Z,-0.90
2022-12-14T18:18:23.969Z,-1.00
2022-12-14T18:20:52.776Z,-1.00
2022-12-14T18:23:20.704Z,-1.00
2022-12-14T18:25:49.063Z,-1.10
2022-12-14T18:28:19.085Z,-1.10
2022-12-14T18:30:50.807Z,-1.10
2022-12-14T18:33:19.029Z,-1.20
2022-12-14T18:35:46.101Z,-1.20
2022-12-14T18:38:14.961Z,-1.20
2022-12-14T18:40:47.762Z,-1.30
2022-12-14T18:43:27.021Z,-1.40
2022-12-14T18:45:56.757Z,-1.40
2022-12-14T18:48:24.871Z,-1.40
2022-12-14T18:50:52.840Z,-1.30
2022-12-14T18:53:22.988Z,-1.40
2022-12-14T18:55:49.740Z,-1.30
2022-12-14T18:58:20.688Z,-1.30
2022-12-14T19:00:51.473Z,-1.30
2022-12-14T19:03:21.035Z,-1.30
2022-12-14T19:05:47.629Z,-1.40
2022-12-14T19:08:14.203Z,-1.40
2022-12-14T19:10:42.438Z,-1.40
2022-12-14T19:13:25.842Z,-1.40
2022-12-14T19:15:52.970Z,-1.40
2022-12-14T19:18:21.749Z,-1.50
2022-12-14T19:20:49.592Z,-1.50
2022-12-14T19:23:17.485Z,-1.50
2022-12-14T19:25:44.124Z,-1.40
2022-12-14T19:28:30.924Z,-1.50
2022-12-14T19:30:57.615Z,-1.50
2022-12-14T19:33:25.433Z,-1.50
2022-12-14T19:35:52.306Z,-1.60
2022-12-14T19:38:18.859Z,-1.60
2022-12-14T19:40:55.858Z,-1.60
2022-12-14T19:43:22.392Z,-1.70
2022-12-14T19:45:48.923Z,-1.70
2022-12-14T19:48:15.498Z,-1.80
2022-12-14T19:50:42.087Z,-1.80
2022-12-14T19:53:08.660Z,-1.90
2022-12-14T19:55:40.248Z,-1.90
2022-12-14T19:58:06.759Z,-1.90
2022-12-14T20:00:33.329Z,-1.90
2022-12-14T20:02:59.989Z,-2.00
2022-12-14T20:05:29.077Z,-1.90
2022-12-14T20:07:55.658Z,-1.90
2022-12-14T20:10:22.800Z,-1.90
2022-12-14T20:12:49.396Z,-1.90
2022-12-14T20:15:16.072Z,-1.90
2022-12-14T20:17:42.590Z,-1.90
2022-12-14T20:20:09.421Z,-2.00
2022-12-14T20:22:36.001Z,-2.00
2022-12-14T20:25:02.819Z,-2.10
2022-12-14T20:27:29.432Z,-2.20
2022-12-14T20:29:55.998Z,-2.30
2022-12-14T20:32:24.821Z,-2.40
2022-12-14T20:34:51.391Z,-2.40
2022-12-14T20:37:17.912Z,-2.40
2022-12-14T20:39:44.643Z,-2.40
2022-12-14T20:42:13.707Z,-2.30
2022-12-14T20:44:42.812Z,-2.30
2022-12-14T20:47:11.908Z,-2.30
2022-12-14T20:49:39.317Z,-2.40
2022-12-14T20:52:05.863Z,-2.40
2022-12-14T20:54:32.503Z,-2.40
2022-12-14T20:57:01.219Z,-2.50
2022-12-14T20:59:30.264Z,-2.40
2022-12-14T21:02:01.622Z,-2.40
2022-12-14T21:04:28.368Z,-2.40
2022-12-14T21:06:55.073Z,-2.40
2022-12-14T21:09:24.110Z,-2.30
2022-12-14T21:12:09.402Z,-2.40
2022-12-14T21:14:37.083Z,-2.50
2022-12-14T21:17:04.169Z,-2.50
2022-12-14T21:19:33.592Z,-2.50
2022-12-14T21:22:00.154Z,-2.50
2022-12-14T21:25:02.251Z,-2.60
2022-12-14T21:27:18.047Z,-2.70
2022-12-14T21:29:47.385Z,-2.70
2022-12-14T21:32:14.489Z,-2.70
2022-12-14T21:34:41.250Z,-2.70
2022-12-14T21:37:07.868Z,-2.70
2022-12-14T21:39:34.738Z,-2.70
2022-12-14T21:42:10.514Z,-2.70
2022-12-14T21:44:37.471Z,-2.80
2022-12-14T21:47:07.561Z,-2.80
2022-12-14T21:49:38.025Z,-2.80
2022-12-14T21:52:07.507Z,-2.80
2022-12-14T21:54:34.647Z,-2.80
2022-12-14T21:57:22.120Z,-2.80
2022-12-14T21:59:50.952Z,-2.90
2022-12-14T22:02:22.170Z,-2.90
2022-12-14T22:04:49.217Z,-3.00
2022-12-14T22:07:19.899Z,-3.10
2022-12-14T22:09:49.805Z,-3.00
2022-12-14T22:12:19.111Z,-3.10
2022-12-14T22:14:45.766Z,-3.00
2022-12-14T22:17:13.943Z,-3.00
2022-12-14T22:19:40.513Z,-3.00
2022-12-14T22:22:07.126Z,-3.00
2022-12-14T22:24:33.799Z,-3.00
2022-12-14T22:27:00.510Z,-3.00
2022-12-14T22:29:27.031Z,-3.10
2022-12-14T22:31:53.691Z,-3.10
2022-12-14T22:34:21.432Z,-3.10
2022-12-14T22:36:49.462Z,-3.00
2022-12-14T22:39:18.771Z,-3.00
2022-12-14T22:41:45.728Z,-2.90
2022-12-14T22:44:14.854Z,-2.90
2022-12-14T22:46:41.459Z,-2.90
2022-12-14T22:49:08.711Z,-2.90
2022-12-14T22:51:37.685Z,-2.90
2022-12-14T22:54:04.344Z,-2.80
2022-12-14T22:56:30.859Z,-2.90
2022-12-14T22:59:02.917Z,-2.90
2022-12-14T23:01:29.689Z,-2.90
2022-12-14T23:03:56.734Z,-2.90
2022-12-14T23:06:23.447Z,-2.90
2022-12-14T23:09:08.668Z,-2.80
2022-12-14T23:11:56.403Z,-2.80
2022-12-14T23:14:41.598Z,-2.80
2022-12-14T23:17:29.478Z,-2.80
2022-12-14T23:20:14.609Z,-2.80
2022-12-14T23:23:00.050Z,-2.70
2022-12-14T23:25:45.449Z,-2.70
2022-12-14T23:28:31.019Z,-2.70
2022-12-14T23:31:16.767Z,-2.70
2022-12-14T23:34:02.108Z,-2.70
2022-12-14T23:36:47.110Z,-2.60
2022-12-14T23:39:32.414Z,-2.60
2022-12-14T23:42:17.797Z,-2.60
2022-12-14T23:45:02.758Z,-2.70
2022-12-14T23:47:49.367Z,-2.70
2022-12-14T23:50:34.581Z,-2.70
2022-12-14T23:53:23.977Z,-2.80
2022-12-14T23:56:09.125Z,-2.70
2022-12-14T23:58:54.423Z,-2.70
